Time;durP1;ratioP1;P1;durP2;ratioP2;P2;SDS_P1;SDS_P2;PMS_P1;PMS_P2;Temp;Humidity;BMP_temperature;BMP_pressure;BME280_temperature;BME280_humidity;BME280_pressure;Samples;Min_cycle;Max_cycle;Signal;HPM_P1;HPM_P2
2021/11/19 00:01:56;;;;;;;29.05;12.20;;;;;;;14.64;61.26;102785.19;4993657;28;124088;-69
2021/11/19 00:04:26;;;;;;;23.05;11.45;;;;;;;14.63;61.44;102783.41;4990496;28;124616;-69
2021/11/19 00:06:55;;;;;;;27.33;12.18;;;;;;;14.62;61.45;102787.00;4989711;28;120277;-69
2021/11/19 00:09:24;;;;;;;26.92;11.85;;;;;;;14.58;61.35;102776.44;4995165;28;120435;-69
2021/11/19 00:11:52;;;;;;;27.00;11.60;;;;;;;14.57;61.56;102780.00;4992242;28;124681;-69
2021/11/19 00:14:21;;;;;;;25.35;11.55;;;;;;;14.56;61.49;102778.25;4991488;28;124164;-69
2021/11/19 00:16:55;;;;;;;25.45;11.40;;;;;;;14.55;61.69;102781.81;4990067;28;118237;-69
2021/11/19 00:19:25;;;;;;;24.60;11.48;;;;;;;14.53;61.47;102773.00;4991618;28;118148;-69
2021/11/19 00:21:53;;;;;;;25.42;11.55;;;;;;;14.52;61.58;102775.72;4999174;28;124068;-70
2021/11/19 00:24:20;;;;;;;26.92;11.95;;;;;;;14.51;61.73;102769.50;4995476;28;125058;-69
2021/11/19 00:26:48;;;;;;;24.20;12.23;;;;;;;14.51;61.75;102779.31;4993535;28;119165;-69
2021/11/19 00:29:16;;;;;;;23.33;11.30;;;;;;;14.49;61.76;102771.34;4980160;28;118935;-69
2021/11/19 00:31:44;;;;;;;26.73;11.20;;;;;;;14.48;61.78;102774.91;4995580;28;125229;-69
2021/11/19 00:34:14;;;;;;;24.50;11.65;;;;;;;14.49;61.89;102781.16;4995977;28;123292;-69
2021/11/19 00:36:44;;;;;;;25.73;11.75;;;;;;;14.46;61.97;102776.75;5000129;28;119473;-69
2021/11/19 00:39:14;;;;;;;24.77;11.32;;;;;;;14.46;61.90;102776.75;4993312;28;119227;-69
2021/11/19 00:41:43;;;;;;;23.00;11.63;;;;;;;14.45;62.01;102774.13;4987736;28;122934;-69
2021/11/19 00:44:11;;;;;;;22.95;11.32;;;;;;;14.45;62.09;102779.47;4991287;28;123681;-70
2021/11/19 00:46:40;;;;;;;24.25;11.95;;;;;;;14.45;62.28;102775.03;4992500;28;120016;-70
2021/11/19 00:49:10;;;;;;;28.52;12.50;;;;;;;14.44;62.25;102781.28;4992581;28;120241;-70
2021/11/19 00:51:47;;;;;;;29.55;12.70;;;;;;;14.44;62.14;102773.28;4994226;28;123554;-70
2021/11/19 00:54:15;;;;;;;25.63;11.73;;;;;;;14.43;62.23;102771.56;4993893;28;123211;-70
2021/11/19 00:56:47;;;;;;;31.13;12.40;;;;;;;14.42;62.25;102769.78;4991416;28;120444;-69
2021/11/19 01:02:13;;;;;;;25.10;12.35;;;;;;;14.41;62.35;102784.06;4917640;28;100829;-72
2021/11/19 01:04:41;;;;;;;22.95;12.38;;;;;;;14.43;62.51;102781.31;4894165;28;122694;-72
2021/11/19 01:07:12;;;;;;;26.83;12.00;;;;;;;14.42;62.50;102780.44;4917776;28;119062;-71
2021/11/19 01:09:46;;;;;;;25.08;12.60;;;;;;;14.43;62.59;102792.88;4906767;28;118717;-72
2021/11/19 01:12:16;;;;;;;24.73;12.27;;;;;;;14.44;62.47;102788.41;4909860;28;123528;-72
2021/11/19 01:14:56;;;;;;;27.42;12.55;;;;;;;14.44;62.59;102783.94;4923561;28;123916;-72
2021/11/19 01:17:29;;;;;;;22.67;12.48;;;;;;;14.45;62.59;102791.03;4909505;28;118278;-72
2021/11/19 01:20:31;;;;;;;24.45;12.65;;;;;;;14.44;62.62;102797.28;4909987;28;118355;-71
2021/11/19 01:23:00;;;;;;;27.25;13.32;;;;;;;14.45;62.57;102800.81;4923279;28;123826;-72
2021/11/19 01:25:32;;;;;;;27.27;13.13;;;;;;;14.45;62.71;102801.69;4922702;28;122637;-72
2021/11/19 01:27:59;;;;;;;27.33;13.25;;;;;;;14.44;62.66;102799.94;4922568;28;118456;-72
2021/11/19 01:30:34;;;;;;;27.52;12.95;;;;;;;14.44;62.66;102813.25;4924856;28;118091;-72
2021/11/19 01:33:03;;;;;;;27.63;13.40;;;;;;;14.43;62.79;102808.88;4925779;28;123511;-72
2021/11/19 01:35:48;;;;;;;31.85;13.18;;;;;;;14.41;62.64;102810.72;4927435;28;124801;-73
2021/11/19 01:38:29;;;;;;;26.98;12.77;;;;;;;14.43;62.89;102813.31;4924984;28;118408;-73
2021/11/19 01:41:42;;;;;;;31.42;14.52;;;;;;;14.43;62.81;102818.63;4914999;28;120401;-72
2021/11/19 01:44:20;;;;;;;28.77;14.13;;;;;;;14.44;62.86;102810.59;4924180;28;124606;-73
2021/11/19 01:46:51;;;;;;;27.92;13.98;;;;;;;14.45;62.85;102801.69;4925436;28;123759;-72
2021/11/19 01:49:20;;;;;;;26.27;13.60;;;;;;;14.47;62.96;102804.31;4920301;28;119758;-72
2021/11/19 01:51:55;;;;;;;26.42;13.70;;;;;;;14.47;62.87;102793.66;4937831;28;119177;-72
2021/11/19 01:54:31;;;;;;;30.92;15.07;;;;;;;14.48;62.92;102790.91;4924193;28;124338;-73
2021/11/19 01:57:04;;;;;;;27.50;15.05;;;;;;;14.49;62.90;102787.34;4912370;28;123517;-73
2021/11/19 01:59:35;;;;;;;28.90;14.25;;;;;;;14.48;63.09;102780.25;4928317;28;118497;-73
2021/11/19 02:02:12;;;;;;;33.50;14.90;;;;;;;14.50;62.97;102785.56;4925659;28;118651;-72
2021/11/19 02:05:22;;;;;;;28.92;15.35;;;;;;;14.48;63.07;102788.25;4943044;28;124877;-73
2021/11/19 02:07:53;;;;;;;27.90;14.95;;;;;;;14.48;62.98;102795.38;4906887;28;123122;-73
2021/11/19 02:10:38;;;;;;;29.40;15.15;;;;;;;14.48;63.12;102800.72;4913930;28;118633;-72
2021/11/19 02:13:22;;;;;;;34.08;16.08;;;;;;;14.47;63.14;102788.31;4925862;28;118728;-73
2021/11/19 02:15:57;;;;;;;29.98;15.13;;;;;;;14.46;63.05;102782.09;4942503;28;123292;-72
2021/11/19 02:18:32;;;;;;;33.50;16.25;;;;;;;14.46;63.09;102770.56;4944280;28;123404;-72
2021/11/19 02:21:06;;;;;;;27.35;15.05;;;;;;;14.46;63.30;102766.09;4924256;28;119953;-73
2021/11/19 02:23:57;;;;;;;30.00;16.70;;;;;;;14.46;63.30;102771.44;4926954;28;118400;-73
2021/11/19 02:26:30;;;;;;;33.20;15.68;;;;;;;14.46;63.27;102776.75;4926852;28;123451;-71
2021/11/19 02:28:58;;;;;;;30.23;15.73;;;;;;;14.47;63.28;102775.00;4926774;28;124106;-72
2021/11/19 02:31:30;;;;;;;33.90;16.40;;;;;;;14.46;63.28;102771.44;4927383;28;119262;-72
2021/11/19 02:34:02;;;;;;;32.55;16.70;;;;;;;14.46;63.19;102771.44;4920352;28;118066;-71
2021/11/19 02:36:41;;;;;;;31.15;17.20;;;;;;;14.46;63.31;102771.44;4927390;28;122478;-72
2021/11/19 02:39:14;;;;;;;29.33;15.95;;;;;;;14.49;63.30;102771.34;4927502;28;122887;-72
2021/11/19 02:41:47;;;;;;;30.05;16.15;;;;;;;14.50;63.51;102764.22;4925931;28;119329;-72
2021/11/19 02:44:20;;;;;;;35.10;16.60;;;;;;;14.50;63.48;102767.75;4910839;28;119586;-72
2021/11/19 02:46:58;;;;;;;32.13;17.23;;;;;;;14.52;63.39;102771.28;4927030;28;123400;-72
2021/11/19 02:49:27;;;;;;;38.40;17.15;;;;;;;14.52;63.36;102771.28;4925485;28;123424;-72
2021/11/19 02:51:55;;;;;;;36.03;17.13;;;;;;;14.53;63.28;102773.00;4926475;28;118703;-72
2021/11/19 02:54:31;;;;;;;35.45;17.63;;;;;;;14.54;63.43;102768.53;4913066;28;119309;-72
2021/11/19 02:57:01;;;;;;;33.95;16.20;;;;;;;14.54;63.51;102772.09;4926814;28;123587;-72
2021/11/19 02:59:28;;;;;;;31.25;16.73;;;;;;;14.54;63.51;102764.09;4928197;28;122877;-73
2021/11/19 03:01:59;;;;;;;34.17;16.08;;;;;;;14.54;63.43;102768.53;4939554;28;119089;-72
2021/11/19 03:04:37;;;;;;;31.65;16.90;;;;;;;14.53;63.68;102772.13;4939373;28;118474;-72
2021/11/19 03:07:05;;;;;;;34.72;17.38;;;;;;;14.54;63.42;102774.75;4945237;28;124765;-72
2021/11/19 03:09:40;;;;;;;34.08;17.17;;;;;;;14.54;63.41;102766.75;4931183;28;123357;-72
2021/11/19 03:12:12;;;;;;;32.72;16.23;;;;;;;14.54;63.44;102774.75;4927438;28;120063;-73
2021/11/19 03:14:41;;;;;;;35.00;17.30;;;;;;;14.56;63.56;102775.59;4930515;28;118330;-72
2021/11/19 03:17:10;;;;;;;31.35;16.77;;;;;;;14.56;63.42;102778.25;4928553;28;123687;-72
2021/11/19 03:19:40;;;;;;;31.08;16.80;;;;;;;14.57;63.48;102780.00;4929902;28;123073;-72
2021/11/19 03:22:08;;;;;;;32.33;16.52;;;;;;;14.57;63.57;102773.81;4948591;28;119209;-73
2021/11/19 03:24:36;;;;;;;34.85;18.08;;;;;;;14.55;63.48;102771.16;4930829;28;118329;-72
2021/11/19 03:27:04;;;;;;;36.45;17.13;;;;;;;14.57;63.51;102769.34;4947964;28;123873;-73
2021/11/19 03:29:32;;;;;;;33.20;17.45;;;;;;;14.58;63.56;102771.09;4926335;28;123557;-72
2021/11/19 03:32:02;;;;;;;32.40;17.45;;;;;;;14.58;63.61;102771.09;4913744;28;119707;-72
2021/11/19 03:34:29;;;;;;;34.40;17.95;;;;;;;14.59;63.66;102772.84;4930606;28;119620;-72
2021/11/19 03:36:56;;;;;;;35.67;17.00;;;;;;;14.61;63.59;102775.47;4926079;28;123224;-72
2021/11/19 03:39:27;;;;;;;33.33;17.73;;;;;;;14.60;63.59;102771.94;4930528;28;122909;-73
2021/11/19 03:41:56;;;;;;;35.55;17.65;;;;;;;14.61;63.53;102775.47;4930125;28;119801;-72
2021/11/19 03:44:44;;;;;;;35.75;17.75;;;;;;;14.59;63.62;102767.50;4930401;28;118588;-73
2021/11/19 03:47:23;;;;;;;36.25;17.95;;;;;;;14.59;63.61;102764.84;4928598;28;123125;-73
2021/11/19 03:49:52;;;;;;;32.67;16.88;;;;;;;14.62;63.55;102773.66;4939714;28;123497;-72
2021/11/19 03:52:25;;;;;;;37.13;17.20;;;;;;;14.62;63.74;102771.00;4929737;28;118883;-72
2021/11/19 03:54:55;;;;;;;35.70;18.58;;;;;;;14.61;63.65;102770.13;4930219;28;118318;-72
2021/11/19 03:57:24;;;;;;;33.30;17.38;;;;;;;14.62;63.58;102774.56;4926602;28;124066;-73
2021/11/19 03:59:54;;;;;;;35.92;18.25;;;;;;;14.60;63.65;102769.25;4947557;28;124114;-72
2021/11/19 04:02:26;;;;;;;36.28;17.98;;;;;;;14.60;63.55;102774.59;4929575;28;118783;-72
2021/11/19 04:04:53;;;;;;;38.25;17.80;;;;;;;14.61;63.65;102759.47;4914082;28;118620;-72
2021/11/19 04:07:21;;;;;;;34.63;18.15;;;;;;;14.61;63.69;102764.78;4928969;28;123593;-72
2021/11/19 04:09:49;;;;;;;37.65;18.25;;;;;;;14.61;63.57;102772.78;4929486;28;123295;-73
2021/11/19 04:12:20;;;;;;;36.08;17.23;;;;;;;14.62;63.83;102777.22;4944185;28;117572;-72
2021/11/19 04:14:48;;;;;;;37.40;17.90;;;;;;;14.63;63.83;102775.41;4930136;28;118221;-73
2021/11/19 04:17:15;;;;;;;31.77;17.17;;;;;;;14.63;63.78;102767.41;4914140;28;121801;-72
2021/11/19 04:19:42;;;;;;;36.13;18.13;;;;;;;14.64;63.67;102774.50;4929453;28;123111;-71
2021/11/19 04:22:12;;;;;;;37.65;16.85;;;;;;;14.63;63.69;102770.94;4928619;28;120316;-72
2021/11/19 04:24:46;;;;;;;36.78;17.45;;;;;;;14.64;63.74;102763.84;4928882;28;119415;-72
2021/11/19 04:27:13;;;;;;;38.88;17.70;;;;;;;14.64;63.80;102774.50;4930165;28;123271;-72
2021/11/19 04:30:10;;;;;;;34.88;17.65;;;;;;;14.64;63.72;102779.84;4916324;28;124106;-72
2021/11/19 04:32:37;;;;;;;33.47;16.77;;;;;;;14.64;63.81;102779.84;4927543;28;118874;-72
2021/11/19 04:35:07;;;;;;;32.50;17.02;;;;;;;14.66;63.77;102778.00;4914349;28;117089;-72
2021/11/19 04:37:34;;;;;;;32.30;17.70;;;;;;;14.67;63.70;102779.72;4929264;28;123297;-73
2021/11/19 04:40:10;;;;;;;34.57;17.47;;;;;;;14.65;63.83;102776.25;4930119;28;123548;-72
2021/11/19 04:42:38;;;;;;;34.88;17.33;;;;;;;14.66;63.76;102778.00;4948197;28;119225;-73
2021/11/19 04:45:08;;;;;;;38.28;17.42;;;;;;;14.66;63.82;102775.34;4911199;28;118248;-72
2021/11/19 04:47:40;;;;;;;31.52;16.40;;;;;;;14.67;63.86;102774.41;4915977;28;123365;-72
2021/11/19 04:50:09;;;;;;;31.88;16.98;;;;;;;14.67;63.86;102769.06;4926093;28;123017;-72
2021/11/19 04:52:37;;;;;;;35.92;17.65;;;;;;;14.68;63.97;102776.16;4931562;28;119514;-72
2021/11/19 04:55:07;;;;;;;36.05;17.50;;;;;;;14.68;63.82;102776.16;4948160;28;121801;-73
2021/11/19 04:57:34;;;;;;;31.25;16.70;;;;;;;14.68;63.71;102781.50;4913447;28;123215;-72
2021/11/19 05:00:07;;;;;;;31.55;16.75;;;;;;;14.67;63.69;102779.72;4926313;28;122653;-72
2021/11/19 05:02:41;;;;;;;34.17;16.90;;;;;;;14.67;63.69;102775.25;4926588;28;118441;-72
2021/11/19 05:05:23;;;;;;;29.92;15.82;;;;;;;14.69;63.82;102783.22;4929556;28;118565;-72
2021/11/19 05:07:50;;;;;;;34.45;16.35;;;;;;;14.68;63.81;102781.50;4928194;28;124205;-72
2021/11/19 05:10:19;;;;;;;34.47;17.02;;;;;;;14.69;63.81;102788.56;4928807;28;123441;-72
2021/11/19 05:12:50;;;;;;;32.30;16.85;;;;;;;14.67;63.79;102785.06;4918362;28;119187;-72
2021/11/19 05:15:18;;;;;;;30.77;15.90;;;;;;;14.68;63.88;102781.50;4928694;28;119422;-72
2021/11/19 05:17:47;;;;;;;33.85;16.70;;;;;;;14.69;63.92;102777.88;4926645;28;123268;-72
2021/11/19 05:20:16;;;;;;;28.85;15.63;;;;;;;14.69;63.88;102785.88;4925846;28;123603;-72
2021/11/19 05:22:44;;;;;;;29.10;15.13;;;;;;;14.68;63.78;102786.81;4925543;28;118898;-72
2021/11/19 05:25:14;;;;;;;32.25;16.00;;;;;;;14.69;63.96;102780.56;4931856;28;118142;-73
2021/11/19 05:27:42;;;;;;;29.52;15.80;;;;;;;14.68;63.75;102776.16;4932285;28;123913;-73
2021/11/19 05:30:12;;;;;;;29.10;16.17;;;;;;;14.68;63.95;102776.16;4932475;28;123226;-72
2021/11/19 05:33:07;;;;;;;32.15;16.42;;;;;;;14.69;63.76;102769.88;4944120;28;119358;-72
2021/11/19 05:35:35;;;;;;;34.92;15.68;;;;;;;14.67;63.71;102769.94;4930687;28;118596;-73
2021/11/19 05:38:05;;;;;;;29.63;15.63;;;;;;;14.69;63.81;102772.56;4931833;28;123497;-72
2021/11/19 05:40:32;;;;;;;29.15;15.10;;;;;;;14.67;63.81;102769.94;4930588;28;123188;-72
2021/11/19 05:43:01;;;;;;;29.35;15.77;;;;;;;14.67;63.89;102763.72;4932679;28;119203;-73
2021/11/19 05:45:32;;;;;;;29.05;15.95;;;;;;;14.68;63.91;102778.81;4916148;28;118369;-72
2021/11/19 05:48:04;;;;;;;28.15;15.23;;;;;;;14.67;63.82;102777.06;4926661;28;123514;-72
2021/11/19 05:50:38;;;;;;;30.05;15.75;;;;;;;14.68;64.11;102776.16;4929547;28;123411;-72
2021/11/19 05:53:07;;;;;;;33.42;15.80;;;;;;;14.68;63.83;102778.81;4946633;28;119077;-73
2021/11/19 05:55:39;;;;;;;30.65;15.82;;;;;;;14.69;63.90;102773.44;4932501;28;118355;-72
2021/11/19 05:58:07;;;;;;;30.33;15.77;;;;;;;14.69;63.89;102773.44;4932317;28;123249;-73
2021/11/19 06:00:45;;;;;;;32.42;15.43;;;;;;;14.68;63.90;102776.16;4930864;28;123288;-72
2021/11/19 06:03:27;;;;;;;33.70;15.38;;;;;;;14.67;63.98;102774.41;4926929;28;119977;-73
2021/11/19 06:06:09;;;;;;;27.98;15.00;;;;;;;14.68;63.94;102784.16;4930934;28;119817;-73
2021/11/19 06:08:56;;;;;;;30.38;15.77;;;;;;;14.66;63.81;102783.34;4949897;28;124790;-72
2021/11/19 06:11:29;;;;;;;34.33;15.85;;;;;;;14.67;64.05;102782.41;4949036;28;124016;-73
2021/11/19 06:14:07;;;;;;;32.22;16.13;;;;;;;14.67;64.05;102782.41;4923573;28;119248;-73
2021/11/19 06:16:38;;;;;;;30.50;16.30;;;;;;;14.68;64.05;102789.50;4929168;28;118411;-73
2021/11/19 06:19:14;;;;;;;27.63;15.25;;;;;;;14.67;64.03;102785.06;4931497;28;123445;-72
2021/11/19 06:21:44;;;;;;;32.35;15.82;;;;;;;14.67;64.01;102790.41;4930476;28;123300;-73
2021/11/19 06:24:16;;;;;;;30.23;15.57;;;;;;;14.67;64.01;102787.72;4931369;28;118934;-73
2021/11/19 06:26:45;;;;;;;31.08;15.70;;;;;;;14.67;63.98;102785.06;4931445;28;118132;-72
2021/11/19 06:29:16;;;;;;;29.77;15.90;;;;;;;14.67;64.14;102790.41;4930795;28;124456;-73
2021/11/19 06:31:48;;;;;;;30.20;15.80;;;;;;;14.67;64.12;102795.72;4927425;28;123159;-72
2021/11/19 06:34:17;;;;;;;30.50;15.75;;;;;;;14.68;64.09;102797.50;4931124;28;118729;-72
2021/11/19 06:36:45;;;;;;;31.95;16.13;;;;;;;14.69;64.10;102793.88;4930990;28;118350;-72
2021/11/19 06:39:42;;;;;;;31.17;16.63;;;;;;;14.69;64.19;102799.22;4924313;28;123341;-73
2021/11/19 06:42:20;;;;;;;34.28;15.63;;;;;;;14.68;64.26;102798.34;4929992;28;122809;-73
2021/11/19 06:45:15;;;;;;;32.42;16.70;;;;;;;14.70;64.07;102800.97;4947880;28;119079;-72
2021/11/19 06:48:05;;;;;;;31.25;16.35;;;;;;;14.71;64.09;102813.38;4929732;28;118909;-73
2021/11/19 06:51:08;;;;;;;31.25;16.83;;;;;;;14.72;64.22;102815.13;4931441;28;124097;-72
2021/11/19 06:53:49;;;;;;;29.77;16.58;;;;;;;14.73;63.87;102811.53;4914309;28;123188;-73
2021/11/19 06:56:32;;;;;;;35.58;17.17;;;;;;;14.73;64.13;102806.19;4914410;28;119659;-72
2021/11/19 06:59:07;;;;;;;32.38;16.77;;;;;;;14.73;64.19;102807.09;4931004;28;120353;-72
2021/11/19 07:01:36;;;;;;;36.42;17.45;;;;;;;14.73;64.29;102806.19;4914229;28;123367;-72
2021/11/19 07:04:04;;;;;;;32.58;17.08;;;;;;;14.74;64.10;102815.97;4930966;28;123944;-72
2021/11/19 07:06:32;;;;;;;36.60;17.65;;;;;;;14.74;64.18;102821.31;4930139;28;118887;-73
2021/11/19 07:09:19;;;;;;;35.80;17.77;;;;;;;14.73;64.28;102816.88;4945094;28;119974;-73
2021/11/19 07:12:07;;;;;;;35.35;17.92;;;;;;;14.72;64.29;102825.81;4947966;28;124085;-73
2021/11/19 07:14:38;;;;;;;34.47;18.15;;;;;;;14.73;64.28;102827.53;4929818;28;123419;-72
2021/11/19 07:17:07;;;;;;;37.28;17.88;;;;;;;14.74;64.36;102829.31;4928004;28;117955;-73
2021/11/19 07:19:40;;;;;;;37.47;17.70;;;;;;;14.75;64.29;102833.72;4933966;28;118540;-74
2021/11/19 07:22:08;;;;;;;37.33;18.42;;;;;;;14.76;64.35;102828.31;4912672;28;123660;-73
2021/11/19 07:24:38;;;;;;;37.92;18.60;;;;;;;14.76;64.30;102827.47;4930367;28;123118;-73
2021/11/19 07:27:11;;;;;;;35.63;18.35;;;;;;;14.77;64.38;102824.75;4930637;28;117839;-73
2021/11/19 07:29:40;;;;;;;33.65;18.10;;;;;;;14.78;64.54;102825.63;4915160;28;119220;-73
2021/11/19 07:32:46;;;;;;;33.95;17.30;;;;;;;14.79;64.24;102827.38;4866384;28;124492;-73
2021/11/19 07:35:42;;;;;;;37.33;18.02;;;;;;;14.79;64.29;102832.72;4883438;28;122136;-72
2021/11/19 07:38:26;;;;;;;35.47;18.30;;;;;;;14.80;64.22;102839.78;4905961;28;117506;-72
2021/11/19 07:41:12;;;;;;;34.60;19.03;;;;;;;14.80;64.29;102839.78;4932591;28;118592;-73
2021/11/19 07:44:00;;;;;;;38.25;18.70;;;;;;;14.81;64.42;102846.88;4907777;28;124462;-72
2021/11/19 07:46:44;;;;;;;37.83;18.25;;;;;;;14.81;64.35;102852.22;4917490;28;123284;-73
2021/11/19 07:49:13;;;;;;;36.50;17.92;;;;;;;14.83;64.48;102860.16;4928439;28;119777;-72
2021/11/19 07:51:46;;;;;;;39.63;18.63;;;;;;;14.84;64.35;102861.91;4931485;28;119176;-72
2021/11/19 07:54:14;;;;;;;37.50;18.27;;;;;;;14.86;64.40;102860.94;4912230;28;122741;-72
2021/11/19 07:56:43;;;;;;;39.38;18.77;;;;;;;14.88;64.39;102861.78;4931974;28;122938;-73
2021/11/19 07:59:14;;;;;;;38.90;17.70;;;;;;;14.88;64.45;102859.09;4918891;28;118929;-73
2021/11/19 08:01:44;;;;;;;36.15;18.27;;;;;;;14.90;64.41;102865.28;4915202;28;120052;-73
2021/11/19 08:04:12;;;;;;;40.45;17.85;;;;;;;14.90;64.39;102862.59;4930365;28;124009;-72
2021/11/19 08:06:40;;;;;;;39.55;18.08;;;;;;;14.93;64.34;102862.47;4915459;28;123894;-73
2021/11/19 08:09:46;;;;;;;34.40;17.50;;;;;;;14.91;64.34;102859.00;4868448;28;119889;-73
2021/11/19 08:12:33;;;;;;;39.60;18.23;;;;;;;14.93;64.40;102867.81;4868340;28;119423;-72
2021/11/19 08:15:13;;;;;;;38.35;18.60;;;;;;;14.94;64.50;102882.91;4910095;28;124622;-72
2021/11/19 08:17:49;;;;;;;37.15;18.85;;;;;;;14.95;64.41;102871.31;4929781;28;123211;-73
2021/11/19 08:20:36;;;;;;;36.42;17.98;;;;;;;14.96;64.35;102873.06;4913260;28;118364;-72
2021/11/19 08:23:09;;;;;;;35.08;17.67;;;;;;;14.98;64.39;102871.22;4943732;28;118748;-73
2021/11/19 08:25:38;;;;;;;35.78;17.75;;;;;;;15.03;64.31;102878.22;4941809;28;123563;-73
2021/11/19 08:28:28;;;;;;;35.88;18.30;;;;;;;15.04;64.34;102879.97;4943304;28;123787;-74
2021/11/19 08:30:55;;;;;;;32.92;18.42;;;;;;;15.05;64.41;102871.03;4930298;28;119088;-75
2021/11/19 08:33:23;;;;;;;40.95;19.55;;;;;;;15.08;64.35;102873.63;4948546;28;118829;-77
2021/11/19 08:35:50;;;;;;;39.17;18.23;;;;;;;15.09;64.50;102867.38;4930652;28;124411;-75
2021/11/19 08:38:21;;;;;;;36.42;18.30;;;;;;;15.13;64.45;102861.00;4914044;28;122712;-75
2021/11/19 08:40:50;;;;;;;40.35;19.58;;;;;;;15.16;64.48;102868.91;4928680;28;119356;-74
2021/11/19 08:43:21;;;;;;;37.50;19.08;;;;;;;15.20;64.45;102865.22;4930144;28;119946;-74
2021/11/19 08:45:50;;;;;;;36.67;18.70;;;;;;;15.23;64.26;102862.44;4926775;28;124490;-75
2021/11/19 08:48:17;;;;;;;37.17;17.83;;;;;;;15.25;64.37;102868.59;4947682;28;123829;-75
2021/11/19 08:50:45;;;;;;;38.90;18.77;;;;;;;15.27;64.28;102866.75;4941707;28;119044;-75
2021/11/19 08:53:14;;;;;;;37.92;18.75;;;;;;;15.28;64.33;102867.66;4937257;28;118692;-74
2021/11/19 08:55:44;;;;;;;36.65;18.35;;;;;;;15.30;64.31;102872.00;4946799;28;123946;-74
2021/11/19 08:58:23;;;;;;;37.30;18.35;;;;;;;15.35;64.43;102879.84;4929874;28;122067;-75
2021/11/19 09:00:53;;;;;;;37.78;19.17;;;;;;;15.38;64.40;102875.28;4919737;28;119032;-75
2021/11/19 09:03:22;;;;;;;33.55;18.40;;;;;;;15.43;64.26;102871.63;4943957;28;119809;-75
2021/11/19 09:05:50;;;;;;;37.60;18.05;;;;;;;15.44;64.30;102879.56;4929050;28;123322;-74
2021/11/19 09:08:20;;;;;;;35.70;19.27;;;;;;;15.45;64.23;102872.44;4913781;28;122861;-75
2021/11/19 09:10:48;;;;;;;37.10;18.70;;;;;;;15.46;64.28;102871.50;4947181;28;118359;-75
2021/11/19 09:13:16;;;;;;;33.28;18.10;;;;;;;15.48;64.19;102870.53;4946940;28;118902;-75
2021/11/19 09:15:43;;;;;;;35.90;18.50;;;;;;;15.50;64.32;102867.78;4929041;28;123958;-75
2021/11/19 09:18:25;;;;;;;33.28;18.35;;;;;;;15.52;64.08;102872.19;4947554;28;123717;-74
2021/11/19 09:21:40;;;;;;;38.38;18.23;;;;;;;15.55;64.17;102871.19;4932950;28;119543;-75
2021/11/19 09:24:13;;;;;;;39.15;18.83;;;;;;;15.57;64.08;102864.00;4915226;28;119158;-75
2021/11/19 09:26:44;;;;;;;32.55;18.00;;;;;;;15.60;64.23;102866.56;4926371;28;124692;-75
2021/11/19 09:29:37;;;;;;;33.88;17.38;;;;;;;15.63;64.22;102871.81;4931631;28;123871;-75
2021/11/19 09:32:05;;;;;;;38.33;18.45;;;;;;;15.66;63.90;102874.38;4928403;28;119943;-74
2021/11/19 09:34:41;;;;;;;38.70;19.17;;;;;;;15.70;64.06;102881.34;4929922;28;119932;-75
2021/11/19 09:37:11;;;;;;;36.42;18.33;;;;;;;15.73;64.03;102880.41;4926360;28;123809;-74
2021/11/19 09:39:40;;;;;;;34.45;17.85;;;;;;;15.74;63.99;102877.69;4947105;28;123226;-73
2021/11/19 09:42:37;;;;;;;35.03;18.15;;;;;;;15.77;63.87;102877.59;4946667;28;119343;-74
2021/11/19 09:45:42;;;;;;;34.17;18.67;;;;;;;15.77;63.96;102877.59;4933908;28;119429;-74
2021/11/19 09:48:18;;;;;;;36.35;17.40;;;;;;;15.77;63.71;102888.28;4921916;28;123846;-74
2021/11/19 09:51:17;;;;;;;34.38;16.75;;;;;;;15.77;63.79;102896.28;4928094;28;123862;-74
2021/11/19 09:54:01;;;;;;;31.65;16.55;;;;;;;15.80;63.85;102892.63;4947118;28;119207;-74
2021/11/19 09:56:32;;;;;;;35.40;17.70;;;;;;;15.82;63.86;102889.91;4945699;28;120072;-75
2021/11/19 09:59:38;;;;;;;35.05;17.08;;;;;;;15.83;63.81;102883.66;4929152;28;123708;-74
2021/11/19 10:02:21;;;;;;;33.63;16.48;;;;;;;15.84;63.74;102882.72;4928972;28;123440;-74
2021/11/19 10:05:18;;;;;;;33.58;16.95;;;;;;;15.87;63.88;102877.28;4950361;28;119364;-75
2021/11/19 10:07:59;;;;;;;31.13;16.33;;;;;;;15.88;63.85;102879.00;4949413;28;118157;-75
2021/11/19 10:10:38;;;;;;;32.53;16.73;;;;;;;15.91;63.79;102878.91;4947101;28;124243;-74
2021/11/19 10:13:26;;;;;;;33.55;16.42;;;;;;;15.94;63.85;102889.50;4946457;28;123856;-74
2021/11/19 10:16:02;;;;;;;33.15;16.73;;;;;;;15.96;63.63;102888.50;4931866;28;117462;-76
2021/11/19 10:18:47;;;;;;;34.75;17.65;;;;;;;16.00;63.60;102883.94;4948884;28;119748;-75
2021/11/19 10:21:33;;;;;;;33.55;17.35;;;;;;;16.01;63.74;102885.69;4953991;28;124100;-75
2021/11/19 10:24:24;;;;;;;29.13;16.38;;;;;;;16.03;63.67;102888.28;4953406;28;124629;-75
2021/11/19 10:26:51;;;;;;;32.88;17.33;;;;;;;16.05;63.61;102886.44;4944090;28;120193;-75
2021/11/19 10:29:28;;;;;;;31.17;17.33;;;;;;;16.08;63.63;102887.19;4923319;28;120084;-75
2021/11/19 10:31:58;;;;;;;33.42;17.48;;;;;;;16.12;63.43;102893.31;4948390;28;123793;-74
2021/11/19 10:34:41;;;;;;;30.98;16.63;;;;;;;16.15;63.46;102888.72;4934457;28;123397;-75
2021/11/19 10:37:47;;;;;;;30.10;16.63;;;;;;;16.19;63.60;102878.81;4946395;28;119640;-74
2021/11/19 10:40:52;;;;;;;31.47;16.83;;;;;;;16.23;63.41;102879.56;4931182;28;118259;-75
2021/11/19 10:43:42;;;;;;;29.05;15.65;;;;;;;16.27;63.60;102881.19;4920272;28;123572;-74
2021/11/19 10:46:37;;;;;;;31.02;16.73;;;;;;;16.33;63.38;102878.28;4914104;28;123864;-74
2021/11/19 10:49:20;;;;;;;24.67;14.52;;;;;;;16.40;63.52;102871.78;4946047;28;119396;-75
2021/11/19 10:52:12;;;;;;;26.33;14.18;;;;;;;16.45;63.27;102875.16;4931135;28;119396;-74
2021/11/19 10:55:09;;;;;;;25.40;13.35;;;;;;;16.49;63.21;102871.44;4927702;28;122882;-75
2021/11/19 10:58:14;;;;;;;23.88;12.65;;;;;;;16.54;63.32;102880.19;4940570;28;123757;-74
2021/11/19 11:00:53;;;;;;;22.25;13.02;;;;;;;16.58;63.15;102870.25;4945898;28;119153;-75
2021/11/19 11:03:29;;;;;;;23.27;12.45;;;;;;;16.64;62.95;102874.50;4931484;28;118194;-74
2021/11/19 11:06:06;;;;;;;18.67;11.45;;;;;;;16.67;62.77;102874.34;4927068;28;123359;-75
2021/11/19 11:08:36;;;;;;;19.92;11.48;;;;;;;16.68;62.71;102865.41;4927402;28;123886;-74
2021/11/19 11:11:13;;;;;;;21.38;11.68;;;;;;;16.71;62.63;102873.31;4950036;28;119933;-74
2021/11/19 11:13:43;;;;;;;17.73;10.93;;;;;;;16.71;62.61;102871.50;4931868;28;118263;-74
2021/11/19 11:16:25;;;;;;;18.63;11.75;;;;;;;16.72;62.50;102869.69;4931237;28;123550;-75
2021/11/19 11:19:00;;;;;;;18.15;11.18;;;;;;;16.73;62.34;102868.78;4926405;28;124175;-75
2021/11/19 11:21:32;;;;;;;21.73;10.93;;;;;;;16.75;62.28;102866.91;4940752;28;120249;-74
2021/11/19 11:24:28;;;;;;;18.33;11.20;;;;;;;16.77;62.31;102873.09;4935799;28;120670;-74
2021/11/19 11:27:10;;;;;;;17.27;10.65;;;;;;;16.81;62.49;102863.13;4944026;28;124165;-75
2021/11/19 11:30:02;;;;;;;20.10;10.43;;;;;;;16.87;62.50;102869.13;4928990;28;124664;-75
2021/11/19 11:32:41;;;;;;;16.27;9.75;;;;;;;16.93;62.31;102871.59;4925292;28;117602;-75
2021/11/19 11:35:27;;;;;;;16.92;9.55;;;;;;;16.97;62.27;102868.78;4928863;28;118781;-74
2021/11/19 11:38:00;;;;;;;14.43;9.05;;;;;;;17.01;61.98;102859.69;4945522;28;124457;-73
2021/11/19 11:40:48;;;;;;;16.92;9.43;;;;;;;17.04;62.17;102857.75;4913966;28;122933;-74
2021/11/19 11:43:35;;;;;;;13.18;8.63;;;;;;;17.08;61.83;102866.53;4920937;28;119148;-74